Time;durP1;ratioP1;P1;durP2;ratioP2;P2;SDS_P1;SDS_P2;PMS_P1;PMS_P2;Temp;Humidity;BMP_temperature;BMP_pressure;BME280_temperature;BME280_humidity;BME280_pressure;Samples;Min_cycle;Max_cycle;Signal;HPM_P1;HPM_P2
2022/01/30 00:02:13;;;;;;;30.77;8.73;;;;;;;;;;6057707;29;20233;-63
2022/01/30 00:05:35;;;;;;;40.97;12.60;;;;;;;;;;6059867;29;20237;-63
2022/01/30 00:08:55;;;;;;;26.10;8.47;;;;;;;;;;6058184;29;20518;-63
2022/01/30 00:12:18;;;;;;;24.70;7.60;;;;;;;;;;6067140;29;20241;-62
2022/01/30 00:15:40;;;;;;;22.90;7.30;;;;;;;;;;6057160;29;20643;-62
2022/01/30 00:19:08;;;;;;;20.77;7.77;;;;;;;;;;6052461;29;20288;-64
2022/01/30 00:22:43;;;;;;;31.20;8.70;;;;;;;;;;6060090;29;20276;-62
2022/01/30 00:26:07;;;;;;;26.83;8.57;;;;;;;;;;6062792;29;20240;-63
2022/01/30 00:29:27;;;;;;;26.70;8.07;;;;;;;;;;6067428;29;20551;-63
2022/01/30 00:32:48;;;;;;;22.83;7.87;;;;;;;;;;6063965;29;20643;-63
2022/01/30 00:36:09;;;;;;;24.67;8.07;;;;;;;;;;6060869;29;20229;-62
2022/01/30 00:39:30;;;;;;;33.57;10.77;;;;;;;;;;6060010;29;20283;-62
2022/01/30 00:42:51;;;;;;;30.07;8.73;;;;;;;;;;6076114;29;20245;-64
2022/01/30 00:46:11;;;;;;;27.07;8.83;;;;;;;;;;6068190;29;20634;-63
2022/01/30 00:49:32;;;;;;;21.10;7.60;;;;;;;;;;6067726;29;20229;-63
2022/01/30 00:52:55;;;;;;;31.90;11.20;;;;;;;;;;6065350;29;20238;-64
2022/01/30 00:56:16;;;;;;;29.83;9.37;;;;;;;;;;6065565;29;20496;-62
2022/01/30 00:59:37;;;;;;;31.83;8.93;;;;;;;;;;6066676;29;20241;-62
2022/01/30 01:02:57;;;;;;;31.73;11.03;;;;;;;;;;6060549;29;20241;-64
2022/01/30 01:06:18;;;;;;;23.20;7.50;;;;;;;;;;6067000;29;20268;-63
2022/01/30 01:09:40;;;;;;;23.63;9.40;;;;;;;;;;6059045;29;20253;-63
2022/01/30 01:13:14;;;;;;;26.67;7.93;;;;;;;;;;6056985;29;20618;-62
2022/01/30 01:23:53;;;;;;;21.23;5.53;;;;;;;;;;6062490;29;20257;-63
2022/01/30 01:27:14;;;;;;;14.13;5.57;;;;;;;;;;6057408;29;20237;-62
2022/01/30 01:30:36;;;;;;;24.57;7.83;;;;;;;;;;6048404;29;20229;-60
2022/01/30 01:34:10;;;;;;;22.20;6.97;;;;;;;;;;6041088;29;20813;-64
2022/01/30 01:37:30;;;;;;;24.87;8.63;;;;;;;;;;6056203;29;20237;-65
2022/01/30 01:40:53;;;;;;;27.80;6.47;;;;;;;;;;6065371;29;20328;-64
2022/01/30 01:44:18;;;;;;;22.20;7.03;;;;;;;;;;6059159;29;20230;-62
2022/01/30 01:47:39;;;;;;;15.03;6.40;;;;;;;;;;6056480;29;20249;-63
2022/01/30 01:51:07;;;;;;;24.87;6.43;;;;;;;;;;6058750;29;20245;-62
2022/01/30 01:54:27;;;;;;;25.73;7.60;;;;;;;;;;6043538;29;20328;-62
2022/01/30 01:57:48;;;;;;;18.53;6.37;;;;;;;;;;6044973;29;20504;-63
2022/01/30 02:01:33;;;;;;;31.47;10.63;;;;;;;;;;6054157;29;20232;-62
2022/01/30 02:04:58;;;;;;;26.90;8.30;;;;;;;;;;6069976;29;20276;-62
2022/01/30 02:08:33;;;;;;;19.83;6.67;;;;;;;;;;6073185;29;20241;-63
2022/01/30 02:11:54;;;;;;;20.97;7.13;;;;;;;;;;6073829;28;20556;-63
2022/01/30 02:15:34;;;;;;;26.83;7.50;;;;;;;;;;6086208;29;20243;-62
2022/01/30 02:26:13;;;;;;;24.70;9.33;;;;;;;;;;6074029;29;20240;-63
2022/01/30 02:29:34;;;;;;;23.73;8.83;;;;;;;;;;6073764;28;20225;-62
2022/01/30 02:32:56;;;;;;;24.03;6.63;;;;;;;;;;6070536;29;20310;-63
2022/01/30 02:36:16;;;;;;;25.90;7.33;;;;;;;;;;6075554;29;20975;-62
2022/01/30 02:39:38;;;;;;;21.27;6.53;;;;;;;;;;6090353;29;20224;-62
2022/01/30 02:42:59;;;;;;;27.60;8.10;;;;;;;;;;6080533;29;20229;-61
2022/01/30 02:46:26;;;;;;;24.83;9.77;;;;;;;;;;6084839;29;20650;-62
2022/01/30 02:50:08;;;;;;;24.10;7.90;;;;;;;;;;6083333;29;25493;-63
2022/01/30 02:53:31;;;;;;;26.97;10.10;;;;;;;;;;6081547;29;20259;-62
2022/01/30 02:56:53;;;;;;;26.60;7.53;;;;;;;;;;6084848;28;20232;-63
2022/01/30 03:00:14;;;;;;;25.00;8.73;;;;;;;;;;6085974;28;20239;-63
2022/01/30 03:03:35;;;;;;;25.57;5.73;;;;;;;;;;6090190;28;20571;-62
2022/01/30 03:06:55;;;;;;;22.47;6.27;;;;;;;;;;6088667;29;20244;-62
2022/01/30 03:10:37;;;;;;;20.60;6.40;;;;;;;;;;6087455;29;20229;-62
2022/01/30 03:13:59;;;;;;;21.77;7.27;;;;;;;;;;6091905;29;20232;-62
2022/01/30 03:17:20;;;;;;;30.60;10.17;;;;;;;;;;6081739;28;21883;-63
2022/01/30 03:20:42;;;;;;;20.73;7.80;;;;;;;;;;6084251;29;20662;-63
2022/01/30 03:24:03;;;;;;;19.83;5.93;;;;;;;;;;6084659;29;20221;-62
2022/01/30 03:27:24;;;;;;;36.37;10.90;;;;;;;;;;6094608;29;20347;-62
2022/01/30 03:30:55;;;;;;;25.77;9.57;;;;;;;;;;6081267;28;20236;-62
2022/01/30 03:34:28;;;;;;;21.90;7.37;;;;;;;;;;6082252;29;20244;-62
2022/01/30 03:37:49;;;;;;;14.17;6.83;;;;;;;;;;6080756;28;20682;-63
2022/01/30 03:41:09;;;;;;;25.17;9.40;;;;;;;;;;6083106;29;20244;-63
2022/01/30 03:44:32;;;;;;;21.77;6.93;;;;;;;;;;6087951;29;20240;-63
2022/01/30 03:47:55;;;;;;;25.10;7.97;;;;;;;;;;6076513;29;20558;-62
2022/01/30 03:51:21;;;;;;;22.27;8.20;;;;;;;;;;6081944;29;20235;-63
2022/01/30 03:54:42;;;;;;;30.53;8.60;;;;;;;;;;6076715;28;20496;-62
2022/01/30 03:58:03;;;;;;;31.50;9.13;;;;;;;;;;6059217;29;20237;-63
2022/01/30 04:01:25;;;;;;;17.70;7.27;;;;;;;;;;6080850;29;20698;-64
2022/01/30 04:04:47;;;;;;;26.87;8.13;;;;;;;;;;6078372;29;20330;-64
2022/01/30 04:08:09;;;;;;;25.20;7.53;;;;;;;;;;6084038;29;20335;-63
2022/01/30 04:11:53;;;;;;;17.33;5.57;;;;;;;;;;6082117;29;20244;-62
2022/01/30 04:15:21;;;;;;;25.47;7.00;;;;;;;;;;6082241;29;20511;-63
2022/01/30 04:19:09;;;;;;;28.30;8.67;;;;;;;;;;6080213;29;20311;-63
2022/01/30 04:22:57;;;;;;;22.57;6.43;;;;;;;;;;6079147;29;20369;-63
2022/01/30 04:26:44;;;;;;;35.20;8.37;;;;;;;;;;6082355;29;20311;-63
2022/01/30 04:30:34;;;;;;;27.20;8.47;;;;;;;;;;6077664;29;20236;-63
2022/01/30 04:34:09;;;;;;;19.77;6.73;;;;;;;;;;6082145;28;20229;-63
2022/01/30 04:38:24;;;;;;;20.77;8.20;;;;;;;;;;6079327;28;20248;-64
2022/01/30 04:42:10;;;;;;;25.57;8.70;;;;;;;;;;6085686;29;20519;-62
2022/01/30 04:53:39;;;;;;;26.57;9.20;;;;;;;;;;6086556;29;20237;-62
2022/01/30 04:57:38;;;;;;;27.00;8.30;;;;;;;;;;6083144;29;20240;-62
2022/01/30 05:01:21;;;;;;;27.73;9.60;;;;;;;;;;6076450;29;20306;-64
2022/01/30 05:05:04;;;;;;;18.80;7.13;;;;;;;;;;6079287;29;20244;-63
2022/01/30 05:08:30;;;;;;;22.57;8.60;;;;;;;;;;6082920;29;20237;-63
2022/01/30 05:12:11;;;;;;;20.80;7.03;;;;;;;;;;6087242;29;20233;-63
2022/01/30 05:15:50;;;;;;;32.63;8.20;;;;;;;;;;6085532;29;20241;-63
2022/01/30 05:19:19;;;;;;;33.10;10.63;;;;;;;;;;6090228;29;20729;-62
2022/01/30 05:22:50;;;;;;;33.40;7.97;;;;;;;;;;6086251;29;20240;-63
2022/01/30 05:26:25;;;;;;;25.43;8.87;;;;;;;;;;6103689;29;20536;-62
2022/01/30 05:30:17;;;;;;;30.90;8.37;;;;;;;;;;6062402;28;20244;-63
2022/01/30 05:34:04;;;;;;;29.47;8.57;;;;;;;;;;6075504;29;20233;-63
2022/01/30 05:37:44;;;;;;;33.73;8.87;;;;;;;;;;6083892;28;20236;-63
2022/01/30 05:41:24;;;;;;;20.23;7.67;;;;;;;;;;6087293;29;20233;-63
2022/01/30 05:45:16;;;;;;;31.37;7.50;;;;;;;;;;6085355;29;20445;-63
2022/01/30 05:49:02;;;;;;;27.47;8.17;;;;;;;;;;6080693;28;20237;-62
2022/01/30 05:52:43;;;;;;;24.27;7.70;;;;;;;;;;6063501;28;20232;-63
2022/01/30 05:56:09;;;;;;;26.10;7.47;;;;;;;;;;6088210;29;20228;-63
2022/01/30 05:59:31;;;;;;;25.73;7.47;;;;;;;;;;6098261;28;20236;-61
2022/01/30 06:03:11;;;;;;;27.50;9.63;;;;;;;;;;6075065;29;20241;-62
2022/01/30 06:06:32;;;;;;;31.50;12.67;;;;;;;;;;6093241;29;20236;-63
2022/01/30 06:09:52;;;;;;;25.40;6.50;;;;;;;;;;6087325;29;20264;-62
2022/01/30 06:13:13;;;;;;;22.30;8.53;;;;;;;;;;6088673;29;20232;-63
2022/01/30 06:16:35;;;;;;;20.50;8.57;;;;;;;;;;6082060;29;20232;-61
2022/01/30 06:20:09;;;;;;;25.43;7.23;;;;;;;;;;6091583;29;20654;-62
2022/01/30 06:23:32;;;;;;;17.23;7.00;;;;;;;;;;6086867;29;20347;-61
2022/01/30 06:27:11;;;;;;;26.23;7.70;;;;;;;;;;6092694;29;20413;-62
2022/01/30 06:30:56;;;;;;;21.47;8.00;;;;;;;;;;6100601;29;20255;-63
2022/01/30 06:34:36;;;;;;;21.83;6.40;;;;;;;;;;6090354;29;20236;-63
2022/01/30 06:38:22;;;;;;;18.83;7.17;;;;;;;;;;6070244;29;20268;-62
2022/01/30 06:41:46;;;;;;;25.07;7.20;;;;;;;;;;6089811;29;20233;-62
2022/01/30 06:45:25;;;;;;;26.83;8.00;;;;;;;;;;6088606;29;20236;-62
2022/01/30 06:49:05;;;;;;;28.67;9.23;;;;;;;;;;6089678;28;20244;-62
2022/01/30 06:52:46;;;;;;;25.17;7.53;;;;;;;;;;6088394;29;20977;-63
2022/01/30 06:56:25;;;;;;;25.73;9.43;;;;;;;;;;6092826;29;20228;-62
2022/01/30 07:00:05;;;;;;;24.47;8.77;;;;;;;;;;6085663;29;20249;-62
2022/01/30 07:03:54;;;;;;;23.37;7.37;;;;;;;;;;6079107;29;20244;-63
2022/01/30 07:07:45;;;;;;;27.43;8.47;;;;;;;;;;6089008;29;20327;-62
2022/01/30 07:11:06;;;;;;;24.53;7.70;;;;;;;;;;6085148;29;20228;-63
2022/01/30 07:14:26;;;;;;;26.27;8.10;;;;;;;;;;6088761;29;20236;-62
2022/01/30 07:17:46;;;;;;;26.67;8.63;;;;;;;;;;6084120;29;20276;-63
2022/01/30 07:21:09;;;;;;;25.47;9.87;;;;;;;;;;6085171;29;20240;-63
2022/01/30 07:24:31;;;;;;;35.27;8.43;;;;;;;;;;6085497;28;20305;-62
2022/01/30 07:27:52;;;;;;;28.50;8.37;;;;;;;;;;6089248;29;20855;-63
2022/01/30 07:31:13;;;;;;;26.20;9.80;;;;;;;;;;6088058;29;20241;-63
2022/01/30 07:34:33;;;;;;;26.20;8.63;;;;;;;;;;6082581;29;20232;-62
2022/01/30 07:37:54;;;;;;;30.53;10.77;;;;;;;;;;6092882;29;20241;-62
2022/01/30 07:41:16;;;;;;;30.97;11.67;;;;;;;;;;6083619;28;20248;-63
2022/01/30 07:44:36;;;;;;;31.50;9.23;;;;;;;;;;6082704;29;20635;-63
2022/01/30 07:47:57;;;;;;;45.97;11.33;;;;;;;;;;6079605;29;20240;-62
2022/01/30 07:51:17;;;;;;;34.87;11.00;;;;;;;;;;6091761;29;20229;-62
2022/01/30 07:54:38;;;;;;;37.57;11.27;;;;;;;;;;6088148;29;20327;-63
2022/01/30 07:58:00;;;;;;;29.00;10.07;;;;;;;;;;6088909;29;20343;-64
2022/01/30 08:01:20;;;;;;;39.97;10.50;;;;;;;;;;6083506;29;20323;-63
2022/01/30 08:04:41;;;;;;;32.97;11.23;;;;;;;;;;6086832;28;20742;-62
2022/01/30 08:08:02;;;;;;;28.07;9.03;;;;;;;;;;6085402;29;20248;-63
2022/01/30 08:11:23;;;;;;;33.93;10.80;;;;;;;;;;6086970;28;20225;-62
2022/01/30 08:14:45;;;;;;;33.93;11.10;;;;;;;;;;6087631;29;20598;-63
2022/01/30 08:18:05;;;;;;;38.67;9.90;;;;;;;;;;6086153;29;20263;-62
2022/01/30 08:21:26;;;;;;;24.40;8.87;;;;;;;;;;6091723;29;20240;-62
2022/01/30 08:24:47;;;;;;;38.03;10.93;;;;;;;;;;6083878;29;20240;-64
2022/01/30 08:28:07;;;;;;;28.57;10.93;;;;;;;;;;6085977;29;20833;-62
2022/01/30 08:31:30;;;;;;;38.53;10.33;;;;;;;;;;6086502;29;20732;-64
2022/01/30 08:34:52;;;;;;;23.23;8.40;;;;;;;;;;6093754;29;20828;-63
2022/01/30 08:38:15;;;;;;;33.07;10.33;;;;;;;;;;6091028;29;21606;-63
2022/01/30 08:41:36;;;;;;;26.87;9.57;;;;;;;;;;6087802;29;20268;-62
2022/01/30 08:44:56;;;;;;;37.57;9.37;;;;;;;;;;6082200;29;20229;-63
2022/01/30 08:48:18;;;;;;;31.50;8.63;;;;;;;;;;6087347;29;20354;-62
2022/01/30 08:51:39;;;;;;;32.93;11.03;;;;;;;;;;6093508;28;20683;-64
2022/01/30 08:54:59;;;;;;;26.33;9.13;;;;;;;;;;6084712;29;20236;-63
2022/01/30 08:58:20;;;;;;;25.97;7.93;;;;;;;;;;6085448;29;20244;-62
2022/01/30 09:01:40;;;;;;;32.10;7.97;;;;;;;;;;6081721;28;20233;-60
2022/01/30 09:05:02;;;;;;;25.07;7.43;;;;;;;;;;6090492;28;20240;-61
2022/01/30 09:08:23;;;;;;;30.07;8.03;;;;;;;;;;6088886;28;20248;-61
2022/01/30 09:11:43;;;;;;;24.20;8.13;;;;;;;;;;6089155;29;20233;-62
2022/01/30 09:15:04;;;;;;;26.93;7.20;;;;;;;;;;6088445;29;20233;-62
2022/01/30 09:18:25;;;;;;;26.43;7.73;;;;;;;;;;6082726;28;20237;-63
2022/01/30 09:21:47;;;;;;;23.87;7.10;;;;;;;;;;6079405;29;20232;-62
2022/01/30 09:25:08;;;;;;;21.87;9.40;;;;;;;;;;6090560;28;20224;-62
2022/01/30 09:28:28;;;;;;;31.77;9.10;;;;;;;;;;6094060;29;20245;-62
2022/01/30 09:31:49;;;;;;;31.67;8.57;;;;;;;;;;6084968;28;20236;-62
2022/01/30 09:35:10;;;;;;;37.90;10.90;;;;;;;;;;6080025;28;20607;-68
2022/01/30 09:38:32;;;;;;;39.27;13.67;;;;;;;;;;6083127;29;20628;-63
2022/01/30 09:41:53;;;;;;;30.80;9.33;;;;;;;;;;6089502;29;20240;-62
2022/01/30 09:45:14;;;;;;;27.10;10.03;;;;;;;;;;6088170;29;20229;-62
2022/01/30 09:48:35;;;;;;;29.53;9.77;;;;;;;;;;6084105;29;20241;-62
2022/01/30 09:51:56;;;;;;;23.67;7.27;;;;;;;;;;6078970;29;20232;-63
2022/01/30 09:55:18;;;;;;;26.77;8.93;;;;;;;;;;6078883;29;20232;-63
2022/01/30 09:58:39;;;;;;;40.20;11.17;;;;;;;;;;6082187;29;20228;-63
2022/01/30 10:02:03;;;;;;;30.03;8.43;;;;;;;;;;6087680;29;20224;-63
2022/01/30 10:05:23;;;;;;;30.00;10.90;;;;;;;;;;6083132;29;20271;-62
2022/01/30 10:08:46;;;;;;;32.23;9.87;;;;;;;;;;6080719;29;20631;-63
2022/01/30 10:12:16;;;;;;;32.30;8.73;;;;;;;;;;6080950;29;20236;-62
2022/01/30 10:15:50;;;;;;;27.63;9.87;;;;;;;;;;6078847;29;20546;-62
2022/01/30 10:19:12;;;;;;;30.37;9.37;;;;;;;;;;6082354;29;20244;-63
2022/01/30 10:22:33;;;;;;;32.93;10.93;;;;;;;;;;6085716;29;20323;-62
2022/01/30 10:25:54;;;;;;;29.10;9.20;;;;;;;;;;6083437;29;20630;-63
2022/01/30 10:29:20;;;;;;;36.33;10.60;;;;;;;;;;6085174;29;20240;-63
2022/01/30 10:32:53;;;;;;;33.77;10.23;;;;;;;;;;6057553;29;20272;-64
2022/01/30 10:36:14;;;;;;;28.70;10.73;;;;;;;;;;6073736;29;20232;-63
2022/01/30 10:39:52;;;;;;;28.03;8.93;;;;;;;;;;6087395;29;20516;-64
2022/01/30 10:43:12;;;;;;;26.73;10.20;;;;;;;;;;6097378;29;20243;-63
2022/01/30 10:46:40;;;;;;;35.63;8.93;;;;;;;;;;6072882;29;20320;-64
2022/01/30 10:50:01;;;;;;;23.00;7.70;;;;;;;;;;6080970;29;20485;-63
2022/01/30 10:53:22;;;;;;;27.20;8.37;;;;;;;;;;6085702;29;20239;-64
2022/01/30 10:56:42;;;;;;;23.20;9.00;;;;;;;;;;6085703;29;20240;-63
2022/01/30 11:00:03;;;;;;;23.77;8.13;;;;;;;;;;6085934;29;20220;-64
2022/01/30 11:03:44;;;;;;;25.00;8.73;;;;;;;;;;6081758;29;20236;-63
2022/01/30 11:07:05;;;;;;;28.00;7.87;;;;;;;;;;6079708;28;20237;-63
2022/01/30 11:10:27;;;;;;;27.10;8.93;;;;;;;;;;6080693;29;20232;-64
2022/01/30 11:14:03;;;;;;;23.27;6.77;;;;;;;;;;6076724;29;20264;-63
2022/01/30 11:17:23;;;;;;;31.50;9.87;;;;;;;;;;6080721;29;20244;-63
2022/01/30 11:20:45;;;;;;;26.83;10.00;;;;;;;;;;6075170;29;20654;-62
2022/01/30 11:24:07;;;;;;;22.20;8.43;;;;;;;;;;6069902;29;20559;-63
2022/01/30 11:27:27;;;;;;;17.97;6.70;;;;;;;;;;6076135;29;20224;-63
2022/01/30 11:30:49;;;;;;;24.47;7.57;;;;;;;;;;6066096;29;20237;-63
2022/01/30 11:34:10;;;;;;;21.07;8.60;;;;;;;;;;6071057;29;20233;-63
2022/01/30 11:37:33;;;;;;;23.83;8.13;;;;;;;;;;6076686;29;20245;-63
2022/01/30 11:41:08;;;;;;;27.47;9.23;;;;;;;;;;6083497;28;20673;-62
2022/01/30 11:44:29;;;;;;;26.97;8.37;;;;;;;;;;6075567;28;20311;-63
2022/01/30 11:47:51;;;;;;;25.90;8.10;;;;;;;;;;6076931;29;20626;-63
2022/01/30 11:51:12;;;;;;;27.97;9.50;;;;;;;;;;6090302;29;20244;-64
2022/01/30 11:54:35;;;;;;;31.83;8.30;;;;;;;;;;6073093;29;20241;-63
2022/01/30 11:57:55;;;;;;;20.90;8.57;;;;;;;;;;6077840;29;20240;-64
2022/01/30 12:01:37;;;;;;;21.13;7.90;;;;;;;;;;6070409;29;20788;-62
2022/01/30 12:04:58;;;;;;;23.20;8.53;;;;;;;;;;6077713;29;20241;-62
2022/01/30 12:08:38;;;;;;;28.57;7.57;;;;;;;;;;6071832;29;20239;-63
2022/01/30 12:12:07;;;;;;;21.53;8.47;;;;;;;;;;6081229;29;20228;-63
2022/01/30 12:15:37;;;;;;;26.43;7.83;;;;;;;;;;6076135;29;20236;-63
2022/01/30 12:18:58;;;;;;;17.80;7.43;;;;;;;;;;6081217;29;20239;-62
2022/01/30 12:22:37;;;;;;;17.80;6.27;;;;;;;;;;6081836;29;20232;-62
2022/01/30 12:26:03;;;;;;;30.70;8.53;;;;;;;;;;6081054;29;20236;-64
2022/01/30 12:29:38;;;;;;;24.17;7.73;;;;;;;;;;6087143;28;20252;-63
2022/01/30 12:32:59;;;;;;;23.43;7.33;;;;;;;;;;6079304;29;20320;-62
2022/01/30 12:36:20;;;;;;;30.43;7.47;;;;;;;;;;6079334;29;20622;-62
2022/01/30 12:39:41;;;;;;;27.83;8.67;;;;;;;;;;6080060;29;20228;-62
2022/01/30 12:43:03;;;;;;;26.07;9.00;;;;;;;;;;6087858;29;20325;-62
2022/01/30 12:46:26;;;;;;;22.92;8.65;;;;;;;;;;6086734;29;22392;-64
2022/01/30 12:49:50;;;;;;;26.60;8.63;;;;;;;;;;6084758;29;20244;-62
2022/01/30 12:53:11;;;;;;;22.90;7.87;;;;;;;;;;6088627;29;20260;-62
2022/01/30 12:56:32;;;;;;;23.67;7.23;;;;;;;;;;6093229;29;20245;-63
2022/01/30 12:59:53;;;;;;;21.40;5.90;;;;;;;;;;6091306;29;20236;-62
2022/01/30 13:03:19;;;;;;;18.67;7.13;;;;;;;;;;6090423;29;20228;-63
2022/01/30 13:06:41;;;;;;;20.63;6.07;;;;;;;;;;6089512;29;20634;-62
2022/01/30 13:10:05;;;;;;;22.70;7.70;;;;;;;;;;6093247;29;20237;-63
2022/01/30 13:13:26;;;;;;;20.30;5.97;;;;;;;;;;6094007;28;20229;-63
2022/01/30 13:16:47;;;;;;;15.80;5.90;;;;;;;;;;6089858;29;20645;-62
2022/01/30 13:20:12;;;;;;;13.70;5.57;;;;;;;;;;6091145;29;20236;-63
2022/01/30 13:23:32;;;;;;;14.87;4.70;;;;;;;;;;6088167;29;20232;-63
2022/01/30 13:26:56;;;;;;;22.70;6.40;;;;;;;;;;6091452;28;20257;-64
2022/01/30 13:30:20;;;;;;;16.20;6.03;;;;;;;;;;6094853;29;20657;-62
2022/01/30 13:33:40;;;;;;;24.07;8.10;;;;;;;;;;6087241;29;20237;-63
2022/01/30 13:37:03;;;;;;;18.20;6.47;;;;;;;;;;6087274;29;20331;-63
2022/01/30 13:40:38;;;;;;;21.13;8.07;;;;;;;;;;6087813;29;20232;-64
2022/01/30 13:43:58;;;;;;;24.47;6.50;;;;;;;;;;6089591;28;20559;-63
2022/01/30 13:47:20;;;;;;;18.23;4.97;;;;;;;;;;6086190;29;21669;-62
2022/01/30 13:50:43;;;;;;;16.77;6.03;;;;;;;;;;6080162;29;20233;-63
2022/01/30 13:54:05;;;;;;;15.43;5.53;;;;;;;;;;6086976;29;20368;-64
2022/01/30 13:57:30;;;;;;;23.63;7.07;;;;;;;;;;6077791;29;20228;-63
2022/01/30 14:00:51;;;;;;;20.77;6.07;;;;;;;;;;6077087;28;20622;-63
2022/01/30 14:04:12;;;;;;;15.90;5.63;;;;;;;;;;6077883;28;20237;-62
2022/01/30 14:07:32;;;;;;;11.93;4.63;;;;;;;;;;6089008;29;20267;-63
2022/01/30 14:11:06;;;;;;;21.40;7.47;;;;;;;;;;6089254;29;20237;-62
2022/01/30 14:14:27;;;;;;;17.30;6.27;;;;;;;;;;6094201;29;20502;-62
2022/01/30 14:18:02;;;;;;;12.13;4.17;;;;;;;;;;6086945;29;20232;-63
2022/01/30 14:21:23;;;;;;;21.37;5.83;;;;;;;;;;6086481;29;20262;-62
2022/01/30 14:24:49;;;;;;;18.77;7.03;;;;;;;;;;6089889;29;20260;-62
2022/01/30 14:28:24;;;;;;;20.20;5.50;;;;;;;;;;6091419;29;20624;-63
2022/01/30 14:31:48;;;;;;;16.23;6.60;;;;;;;;;;6083064;29;20248;-62
2022/01/30 14:35:10;;;;;;;16.10;5.33;;;;;;;;;;6079026;29;20963;-63
2022/01/30 14:38:30;;;;;;;12.57;4.63;;;;;;;;;;6086540;29;20265;-62
2022/01/30 14:41:50;;;;;;;22.40;7.40;;;;;;;;;;6085100;29;20582;-63
2022/01/30 14:45:12;;;;;;;11.63;4.70;;;;;;;;;;6088512;29;20614;-62
2022/01/30 14:48:32;;;;;;;15.73;5.13;;;;;;;;;;6086293;29;20241;-63
2022/01/30 14:52:16;;;;;;;15.33;6.60;;;;;;;;;;6092373;29;20848;-63
2022/01/30 14:55:37;;;;;;;16.47;4.47;;;;;;;;;;6078906;29;20351;-63
2022/01/30 14:58:57;;;;;;;17.80;6.40;;;;;;;;;;6088910;29;20236;-63
2022/01/30 15:02:19;;;;;;;16.13;4.60;;;;;;;;;;6086535;29;20493;-62
2022/01/30 15:05:40;;;;;;;16.83;5.67;;;;;;;;;;6090693;29;20240;-62
2022/01/30 15:09:02;;;;;;;22.40;9.00;;;;;;;;;;6081866;29;20593;-63
2022/01/30 15:12:22;;;;;;;20.23;4.90;;;;;;;;;;6096297;28;20244;-62
2022/01/30 15:15:43;;;;;;;13.97;6.17;;;;;;;;;;6079086;29;20241;-63
2022/01/30 15:19:04;;;;;;;17.77;4.97;;;;;;;;;;6088070;28;20754;-62
2022/01/30 15:22:25;;;;;;;21.50;6.83;;;;;;;;;;6081012;29;20236;-63
2022/01/30 15:25:46;;;;;;;28.70;7.40;;;;;;;;;;6077555;28;20315;-63
2022/01/30 15:29:09;;;;;;;14.23;6.27;;;;;;;;;;6086265;29;20335;-62
2022/01/30 15:32:29;;;;;;;21.57;5.73;;;;;;;;;;6085031;29;20240;-63
2022/01/30 15:35:52;;;;;;;19.93;7.40;;;;;;;;;;6080499;29;20267;-63
2022/01/30 15:39:13;;;;;;;18.43;7.10;;;;;;;;;;6086415;28;20232;-64
2022/01/30 15:42:34;;;;;;;18.73;6.23;;;;;;;;;;6087167;29;20253;-63
2022/01/30 15:49:32;;;;;;;22.53;8.23;;;;;;;;;;6089281;29;20427;-62
2022/01/30 15:52:55;;;;;;;20.10;7.33;;;;;;;;;;6084436;29;20280;-63
2022/01/30 15:56:15;;;;;;;21.03;6.97;;;;;;;;;;6085710;29;20347;-63
2022/01/30 15:59:36;;;;;;;21.77;6.63;;;;;;;;;;6088738;29;20248;-63
2022/01/30 16:02:56;;;;;;;20.40;5.20;;;;;;;;;;6075870;28;20232;-64
2022/01/30 16:06:17;;;;;;;17.07;6.03;;;;;;;;;;6083494;29;20229;-63
2022/01/30 16:09:39;;;;;;;15.40;5.63;;;;;;;;;;6074775;29;20495;-61
2022/01/30 16:16:38;;;;;;;13.63;5.53;;;;;;;;;;6084377;29;20600;-62
2022/01/30 16:19:59;;;;;;;20.80;6.13;;;;;;;;;;6086720;29;20232;-61
2022/01/30 16:23:19;;;;;;;12.40;5.00;;;;;;;;;;6085888;29;20525;-63
2022/01/30 16:26:42;;;;;;;14.43;5.07;;;;;;;;;;6087195;29;20237;-63
2022/01/30 16:30:04;;;;;;;19.40;6.60;;;;;;;;;;6083527;29;20247;-62
2022/01/30 16:33:26;;;;;;;16.53;5.53;;;;;;;;;;6076581;29;20248;-61
2022/01/30 16:36:47;;;;;;;15.87;5.90;;;;;;;;;;6086009;29;20734;-62
2022/01/30 16:40:08;;;;;;;14.07;4.77;;;;;;;;;;6080163;29;20504;-62
2022/01/30 16:43:44;;;;;;;14.07;4.83;;;;;;;;;;6074917;28;20252;-63
2022/01/30 16:47:15;;;;;;;17.60;5.83;;;;;;;;;;6081566;29;20232;-62
2022/01/30 16:50:36;;;;;;;21.50;7.13;;;;;;;;;;6087226;29;20402;-64
2022/01/30 16:53:57;;;;;;;14.40;4.67;;;;;;;;;;6086226;29;20237;-63
2022/01/30 16:57:18;;;;;;;17.27;4.73;;;;;;;;;;6087028;29;20233;-62
2022/01/30 17:00:40;;;;;;;16.63;5.63;;;;;;;;;;6079768;29;20233;-62
2022/01/30 17:04:01;;;;;;;17.93;5.33;;;;;;;;;;6089854;29;20233;-63
2022/01/30 17:07:27;;;;;;;19.13;5.37;;;;;;;;;;6089416;29;20245;-62
2022/01/30 17:10:49;;;;;;;21.53;6.87;;;;;;;;;;6092772;28;20245;-62
2022/01/30 17:14:09;;;;;;;23.87;8.67;;;;;;;;;;6101845;29;20477;-62
2022/01/30 17:17:35;;;;;;;17.37;5.33;;;;;;;;;;6096067;29;20231;-62
2022/01/30 17:20:55;;;;;;;13.17;5.50;;;;;;;;;;6094312;29;20232;-63
2022/01/30 17:24:16;;;;;;;21.60;6.93;;;;;;;;;;6092944;29;20630;-62
2022/01/30 17:27:37;;;;;;;31.07;7.80;;;;;;;;;;6092122;29;20339;-62
2022/01/30 17:30:58;;;;;;;18.60;5.87;;;;;;;;;;6091954;29;20260;-63
2022/01/30 17:34:20;;;;;;;17.87;5.93;;;;;;;;;;6084594;29;20244;-63
2022/01/30 17:37:40;;;;;;;24.30;5.70;;;;;;;;;;6085793;29;20241;-63
2022/01/30 17:41:01;;;;;;;20.40;5.63;;;;;;;;;;6087723;29;20236;-63
2022/01/30 17:44:21;;;;;;;14.23;5.93;;;;;;;;;;6088296;29;20236;-63
2022/01/30 17:47:42;;;;;;;17.77;4.90;;;;;;;;;;6072105;29;20237;-62
2022/01/30 17:51:04;;;;;;;16.07;4.83;;;;;;;;;;6079808;29;20233;-63
2022/01/30 17:54:28;;;;;;;17.13;3.87;;;;;;;;;;6081653;29;20237;-64
2022/01/30 17:57:49;;;;;;;14.80;5.00;;;;;;;;;;6087658;29;20554;-62
2022/01/30 18:01:09;;;;;;;19.37;5.23;;;;;;;;;;6074834;29;20233;-62
2022/01/30 18:04:31;;;;;;;17.63;4.90;;;;;;;;;;6083792;29;20233;-63
2022/01/30 18:07:53;;;;;;;16.77;4.17;;;;;;;;;;6090427;29;20686;-63
2022/01/30 18:11:15;;;;;;;16.23;4.17;;;;;;;;;;6095038;28;20254;-61
2022/01/30 18:14:36;;;;;;;13.83;4.40;;;;;;;;;;6080420;29;20244;-64
2022/01/30 18:17:56;;;;;;;12.40;4.33;;;;;;;;;;6084775;29;20248;-64
2022/01/30 18:21:16;;;;;;;18.50;6.87;;;;;;;;;;6082510;29;20221;-63
2022/01/30 18:24:38;;;;;;;13.57;5.03;;;;;;;;;;6085502;29;20585;-64
2022/01/30 18:28:00;;;;;;;14.70;5.10;;;;;;;;;;6092964;29;20220;-62
2022/01/30 18:31:20;;;;;;;21.37;5.60;;;;;;;;;;6090724;29;20240;-63
2022/01/30 18:34:40;;;;;;;17.73;5.47;;;;;;;;;;6090691;28;20236;-63
2022/01/30 18:38:02;;;;;;;19.80;8.10;;;;;;;;;;6089508;29;20245;-63
2022/01/30 18:41:24;;;;;;;17.00;4.83;;;;;;;;;;6090989;28;20251;-63
2022/01/30 18:44:44;;;;;;;22.53;7.47;;;;;;;;;;6082793;29;21143;-64
2022/01/30 18:48:06;;;;;;;18.60;5.03;;;;;;;;;;6081669;29;20236;-64
2022/01/30 18:51:26;;;;;;;17.33;5.90;;;;;;;;;;6085741;29;20245;-61
2022/01/30 18:54:47;;;;;;;20.27;5.73;;;;;;;;;;6084226;28;20255;-63
2022/01/30 18:58:09;;;;;;;16.50;6.13;;;;;;;;;;6079506;29;20257;-63
2022/01/30 19:01:29;;;;;;;17.43;5.30;;;;;;;;;;6090411;29;20225;-63
2022/01/30 19:04:50;;;;;;;20.00;6.47;;;;;;;;;;6088880;29;20232;-61
2022/01/30 19:08:11;;;;;;;16.67;6.13;;;;;;;;;;6097998;29;20800;-63
2022/01/30 19:11:32;;;;;;;12.37;5.10;;;;;;;;;;6087422;29;20248;-63
2022/01/30 19:14:54;;;;;;;22.52;7.72;;;;;;;;;;6088058;29;20756;-65
2022/01/30 19:18:15;;;;;;;21.53;6.47;;;;;;;;;;6086353;29;20241;-61
2022/01/30 19:21:35;;;;;;;23.27;6.20;;;;;;;;;;6087978;29;20233;-63
2022/01/30 19:24:56;;;;;;;28.23;7.00;;;;;;;;;;6085403;29;20236;-62
2022/01/30 19:28:16;;;;;;;21.43;6.53;;;;;;;;;;6082673;29;21355;-62
2022/01/30 19:31:38;;;;;;;25.53;9.03;;;;;;;;;;6089761;29;20236;-63
2022/01/30 19:34:59;;;;;;;21.90;6.93;;;;;;;;;;6084394;29;20241;-63
2022/01/30 19:38:19;;;;;;;19.37;7.27;;;;;;;;;;6087917;29;20618;-62
2022/01/30 19:41:43;;;;;;;18.63;6.50;;;;;;;;;;6092943;28;20355;-62
2022/01/30 19:45:04;;;;;;;20.33;8.13;;;;;;;;;;6081505;29;20328;-63
2022/01/30 19:48:26;;;;;;;23.73;7.33;;;;;;;;;;6087258;29;20228;-63
2022/01/30 19:51:47;;;;;;;31.33;7.27;;;;;;;;;;6084885;29;20831;-62
2022/01/30 19:55:08;;;;;;;17.63;7.10;;;;;;;;;;6081479;28;20359;-62
2022/01/30 19:58:29;;;;;;;22.77;7.60;;;;;;;;;;6084203;28;20547;-63
2022/01/30 20:01:49;;;;;;;25.67;6.73;;;;;;;;;;6080732;29;20225;-62
2022/01/30 20:05:11;;;;;;;22.47;7.63;;;;;;;;;;6078382;28;20324;-63
2022/01/30 20:08:32;;;;;;;26.37;7.70;;;;;;;;;;6080882;29;20236;-63
2022/01/30 20:11:52;;;;;;;24.37;7.23;;;;;;;;;;6085294;29;20236;-63
2022/01/30 20:15:13;;;;;;;18.40;6.60;;;;;;;;;;6087819;28;20236;-64
2022/01/30 20:18:36;;;;;;;22.73;6.90;;;;;;;;;;6086071;29;20232;-64
2022/01/30 20:21:59;;;;;;;27.77;6.83;;;;;;;;;;6080661;29;20416;-64
2022/01/30 20:25:20;;;;;;;21.77;8.60;;;;;;;;;;6085138;29;20228;-63
2022/01/30 20:28:40;;;;;;;21.87;7.20;;;;;;;;;;6074030;28;20303;-63
2022/01/30 20:32:02;;;;;;;24.87;9.53;;;;;;;;;;6079292;28;20606;-64
2022/01/30 20:35:22;;;;;;;27.37;6.87;;;;;;;;;;6080877;29;20633;-64
2022/01/30 20:38:44;;;;;;;22.90;6.53;;;;;;;;;;6087463;29;20232;-63